Templeville, Maryland
Current Conditions -  °F | °C
As of 3:58 PM on Thursday 20 Nov 2014 (Local Time) from KDOV Reporting Station
Clear Clear  
Wind Chill: 45°   Ceiling: Unl
Heat Index: 50°   Visibility: 10mi
Dew Point: 25°   Wind: 13mph
Humidity: 38%   Direction: 230°SW
Pressure: 29.87"   Gusts: NA
Location:  39.14°N, 75.77°W
Report Text: KDOV 202058Z AUTO 23011KT 10SM CLR 10/M04 A2987 RMK AO2 SLP118 T00991039 55007
Loading
Personal Weather Stations






























Interactive Weather Map New forecast layout! Learn more

10-Day Weather Forecast

Advertisements
Track Severe Weather on mobile